Airfield :
LOGIN :

Register | Disclaimer

   EN    FR    IT 

 










Legend :    VFR   Marginal VFR   IFR   Intensive IFR   Very Intensive IFR
Visi :
Ceiling :
>= 8 km
>= 3000ft
5 to 8 km
1000 to 3000 ft
1500m to 5 km
500 to 1000 ft
800 to 1500m
200 to 500 ft
< 800m
< 200 ft
Symbols :   Thunderstorms  Fog  Heavy snow  Heavy precipitations  Wind > 20 kt
SIGMETs :     Misc.  Thunderstorms  Icing  Turbulence  Mountain Waves  Volcanic Ashes







- Airport Elevation : 290 ft
- IATA code : LAI
- Download approach charts


LFRO - Lannion

CURRENT METAR :
  • 160700Z AUTO 18007KT 160V220 9999 FEW027 OVC034 08/05 Q1011 TEMPO 3000 -RADZ BR OVC005

EXPIRED METARs :
  • 160630Z AUTO 19007KT 150V220 9999 OVC028 08/05 Q1011 TEMPO 3000 -RADZ BR OVC005
  • 160600Z AUTO 17005KT 150V210 9999 OVC028 07/05 Q1011 BECMG SCT008 OVC013
  • 160530Z AUTO 18007KT 9999 OVC024 07/05 Q1012 BECMG SCT008 OVC013
  • 160500Z AUTO 18006KT 150V210 9999 OVC023 07/05 Q1012
  • 160430Z AUTO 18008KT 9999 OVC021 07/04 Q1013

TAF AMD TAF LFRO
Valid from the 16 at 06:00 until the 17 at 06:00 UTC


160646Z 1606/1706 20010KT 9999 BKN020 OVC030
BECMG 1606/1608 -RA BKN014
TEMPO 1609/1614 3000 RADZ BR OVC005
TEMPO 1614/1616 32020G30KT
BECMG 1616/1618 28012KT NSW SCT014 SCT025
TEMPO 1619/1706 4000 SHRA BKN015TCU
No reported NOTAMs for that airfield.



MET'MAP, your aeronautical weather chart ! - Copyright ORBIFLY December 2007 - Disclaimer

ORBIFLY MET'MAP TEAM :

Programming & Development : Alexandra Zaïnal
Concept & Development : Baudouin d'Aumeries
Co-Development & Prog : Marc-Olivier Méhu
Technical & hardware support : Manuel Goepfert

Contact : metmap@orbifly.com




SOURCES & CREDITS :

   NOAA